Terminal Aerodrome Forecast
Issued by NWS Austin/San Antonio, TX

Home | Current Version | Previous Version | Text Only | Print | Product List | Glossary On
Versions: 1 2 3 4 5 6 7 8 9 10 11 12 13 14 15 16 17 18 19 20 21 22 23 24 25 26 27 28 29 30 31 32 33 34 35 36 37
000
FTUS44 KEWX 291346 AAA
TAFAUS
TAF AMD
KAUS 291346Z 2914/3018 19015G25KT P6SM FEW040 BKN070 BKN120
     FM291500 14008KT P6SM BKN025
     FM291900 14010KT P6SM BKN040
     FM300500 16007KT P6SM VCSH OVC018
     FM300900 17005KT 5SM BR OVC007=

USA.gov is the U.S. government's official web portal to all federal, state and local government web resources and services.